EBCIEBOS

Guest
Details From EBCI - Brussels South - Charleroi
To EBOS - Oostende
Flight Number -
Tags generated
Created
Modified
Stats Distance 75 nm / 138 km
Max Altitude 6,300 ft / 1,920 m
Waypoints 3
Social Downloads 2
Likes 0
Share VATSIM

Download

Looking for another format? Having issues loading an existing format? Contact us
Advertisement - Login to hide

Notes

Basic altitude profile: - Ascent Rate: 800ft/min - Ascent Speed: 110kts - Cruise Altitude: 2000ft - Cruise Speed: 190kts - Descent Rate: 600ft/min - Descent Speed: 140kts Options: - Use NATs: yes - Use PACOTS: yes - Use low airways: yes - Use high airways: yes

Route

EBCI SISGA EBOS

ID Type Via Altitude Latitude Longitude Leg Dist Tot Dist Heading (true) Name
O EBCI APT - 0 ft / 0 m 50.45995˚ 4.45312˚ - 0 nm - Brussels South - Charleroi
SISGA FIX - 6,300 ft / 1,920 m 50.61797˚ 4.05658˚ 17 nm 17 nm 302° / 302° -
O EBOS APT - 0 ft / 0 m 51.19997˚ 2.87501˚ 56 nm 74 nm 308° / 308° Oostende

Altitude Profile

Advertisement - Login to hide

EBCI

Details ICAO EBCI (CRL)
Name Brussels South - Charleroi
Region Belgium
Timezone Europe/Brussels (UTC+2.0)
Stats Elevation 614 ft / 187 m (AMSL)
Location 50.459947° 4.453125°
Runways 1
Magnetic Variation 1.193° E

METAR

EBCI 230850Z 03008KT 360V060 9000 BKN011 BKN037 17/14 Q1019 BECMG BKN015

Decode

TAF

TAF EBCI 230520Z 2306/2412 02006KT 7000 SCT048 PROB30 TEMPO 2306/2307 3500 BR MIFG PROB30 TEMPO 2308/2315 4000 SHRA TSRA PROB40 TEMPO 2315/2320 VRB18G28KT 3500 SHRA TSRAGR

Decode

Departure Runways

ID Width Length Bearing (true) Bearing (mag) Surface Threshold Offset Overrun Length
07 148 ft / 45 m 8,374 ft / 2,552 m 65.53° 64.34° Asphalt 1,476 ft / 450 m 0 ft / 0 m
25 148 ft / 45 m 8,374 ft / 2,552 m 245.55° 244.36° Asphalt 0 ft / 0 m 0 ft / 0 m

EBOS

Details ICAO EBOS (OST)
Name Oostende
Region Belgium
Timezone Europe/Brussels (UTC+2.0)
Stats Elevation 13 ft / 4 m (AMSL)
Location 51.199967° 2.875008°
Runways 1
Magnetic Variation 0.650° E

METAR

EBOS 230850Z 01011KT 6000 -RADZ SCT007 14/12 Q1020 TEMPO 4500 BKN007

Decode

TAF

TAF EBOS 230520Z 2306/2412 02012KT 9000 SCT008 PROB30 TEMPO 2306/2314 4000 SHRA TSRA BKN008 SCT026CB

Decode

Destination Runways

ID Width Length Bearing (true) Bearing (mag) Surface Threshold Offset Overrun Length
08 148 ft / 45 m 10,515 ft / 3,205 m 76.36° 75.71° Asphalt 984 ft / 300 m 0 ft / 0 m
26 148 ft / 45 m 10,515 ft / 3,205 m 256.39° 255.74° Asphalt 1,362 ft / 415 m 0 ft / 0 m

Approach Navaids

Runway Type Ident Frequency Range Bearing (true) Bearing (mag) Slope Elevation
08 Localiser IMI 111.55 MHz 18 nm / 33 km 76.37° 75.72° - 13 ft / 4 m (AMSL)
08 Glidescope IMI 111.55 MHz 10 nm / 19 km 76.37° 75.72° 3.00° 13 ft / 4 m (AMSL)
08 DME IMI 111.55 MHz 18 nm / 33 km - - - 13 ft / 4 m (AMSL)
26 Localiser IOS 109.50 MHz 18 nm / 33 km 256.37° 255.72° - 13 ft / 4 m (AMSL)
26 Glidescope IOS 109.50 MHz 10 nm / 19 km 256.37° 255.72° 3.00° 13 ft / 4 m (AMSL)

Popular Alternatives